Bookmark and Share
Track history (hours):
 

Guang Da

Last reported at 2013-Jan-02 14:32 UTC. Time now 2014-Apr-24 14:06 UTC.
Position N 21°47' E 112°46'.
Warning: this ship's position is years out of date!

Length 67 m; draft 2.7 m.

Type: Cargo ship. MMSI: 412467510.

NotesDate/timePositionNaut miles runAvg speedWind from/ knotsBaromVisibWave heightAir tempDewpointWater temp
2013-Jan-02 14:32N 21°47' E 112°46'10 9.9
2013-Jan-02 13:33N 21°48' E 112°56'10 9.7
2013-Jan-02 12:33N 21°49' E 113°06'910.0
2013-Jan-02 11:39N 21°52' E 113°15'1210.1
2013-Jan-02 10:28N 21°57' E 113°27'9 9.7
2013-Jan-02 09:32N 22°02' E 113°35'9 9.4
2013-Jan-02 08:33N 22°06' E 113°44'8 8.0
2013-Jan-02 07:30N 22°11' E 113°51'18 2.6
2013-Jan-02 00:31N 22°18' E 114°09'0 0.0
2013-Jan-01 13:32N 22°18' E 114°09'0 0.0
2013-Jan-01 12:33N 22°18' E 114°09'0 0.1
2013-Jan-01 11:36N 22°18' E 114°09'0 0.0
2013-Jan-01 10:27N 22°18' E 114°09'0 0.0
2013-Jan-01 08:33N 22°18' E 114°09'0 0.0
2013-Jan-01 07:32N 22°18' E 114°09'0 0.0
2013-Jan-01 02:26N 22°18' E 114°09'0 0.0
2013-Jan-01 01:25N 22°18' E 114°09'0 0.1
2013-Jan-01 00:24N 22°18' E 114°09'13 1.0
2012-Dec-31 11:31N 22°12' E 113°57'8 7.8
2012-Dec-31 10:33N 22°11' E 113°49'7 6.7
2012-Dec-31 09:33N 22°06' E 113°44'7 7.4
2012-Dec-31 08:33N 22°02' E 113°37'7 6.7
2012-Dec-31 07:33N 21°59' E 113°30'20 6.7
2012-Dec-31 04:33N 21°49' E 113°11'6 6.5
2012-Dec-31 03:34N 21°48' E 113°05'7 6.9
2012-Dec-31 02:34N 21°48' E 112°57'7 7.0
2012-Dec-31 01:30N 21°48' E 112°49'  
2012-Dec-25 20:28N 21°35' E 112°09'42 8.6
2012-Dec-25 15:33N 21°48' E 112°52'8 8.4
2012-Dec-25 14:33N 21°49' E 113°01'9 8.8
2012-Dec-25 13:34N 21°49' E 113°10'28 9.4
2012-Dec-25 10:33N 22°03' E 113°37'9 9.4
2012-Dec-25 09:33N 22°08' E 113°45'8 8.2
2012-Dec-25 08:32N 22°16' E 113°50'8 8.4
2012-Dec-25 07:33N 22°23' E 113°52'5 0.8
2012-Dec-25 01:25N 22°28' E 113°52'1 0.6
2012-Dec-25 00:31N 22°28' E 113°52'0 0.3
2012-Dec-24 23:29N 22°28' E 113°52'2 0.2
2012-Dec-24 14:33N 22°27' E 113°54'16 2.0
2012-Dec-24 06:33N 22°12' E 113°54'7 7.5
2012-Dec-24 05:36N 22°09' E 113°47'8 7.4
2012-Dec-24 04:32N 22°04' E 113°40'7 6.6
2012-Dec-24 03:27N 22°01' E 113°33'19 6.6
2012-Dec-24 00:33N 21°51' E 113°15'7 6.9
2012-Dec-23 23:33N 21°49' E 113°08'7 6.9
2012-Dec-23 22:33N 21°49' E 113°01'8 7.4
2012-Dec-23 21:31N 21°48' E 112°53'8 7.4
2012-Dec-23 20:24N 21°46' E 112°44'  

Dump ship's entire track history

sailing weather and tide predictions

Guang Da — BXFL — position and weather